createdAt,value
2019-03-04T00:04:29.538Z,96253.69
2019-03-04T00:09:25.357Z,96255.56
2019-03-04T00:14:21.443Z,96252.84
2019-03-04T00:19:17.317Z,96248.39
2019-03-04T00:24:13.347Z,96242.59
2019-03-04T00:29:09.180Z,96248.09
2019-03-04T00:34:05.049Z,96230.55
2019-03-04T00:39:00.762Z,96235.90
2019-03-04T00:43:56.613Z,96230.70
2019-03-04T00:48:52.402Z,96218.83
2019-03-04T00:53:48.131Z,96215.56
2019-03-04T00:58:43.896Z,96212.33
2019-03-04T01:03:39.723Z,96212.25
2019-03-04T01:08:35.479Z,96203.84
2019-03-04T01:13:31.215Z,96205.23
2019-03-04T01:18:27.031Z,96193.44
2019-03-04T01:23:22.731Z,96182.28
2019-03-04T01:28:18.514Z,96175.62
2019-03-04T01:33:14.429Z,96159.50
2019-03-04T01:38:10.418Z,96153.38
2019-03-04T01:43:06.377Z,96145.75
2019-03-04T01:48:02.165Z,96135.62
2019-03-04T01:52:57.921Z,96126.78
2019-03-04T01:57:53.663Z,96124.25
2019-03-04T02:02:49.586Z,96115.91
2019-03-04T02:07:45.957Z,96104.71
2019-03-04T02:12:41.884Z,96091.05
2019-03-04T02:17:37.663Z,96100.66
2019-03-04T02:22:33.544Z,96095.72
2019-03-04T02:27:29.295Z,96059.52
2019-03-04T02:32:25.061Z,96043.92
2019-03-04T02:37:20.814Z,96037.11
2019-03-04T02:42:16.660Z,96022.37
2019-03-04T02:47:12.463Z,96012.80
2019-03-04T02:52:08.173Z,95999.37
2019-03-04T02:57:03.922Z,95999.30
2019-03-04T03:01:59.639Z,95999.47
2019-03-04T03:06:55.427Z,95993.20
2019-03-04T03:11:51.146Z,95998.52
2019-03-04T03:16:47.134Z,96001.64
2019-03-04T03:21:42.995Z,95981.29
2019-03-04T03:26:38.726Z,95970.02
2019-03-04T03:31:34.505Z,95945.72
2019-03-04T03:36:30.234Z,95928.73
2019-03-04T03:41:26.112Z,95925.02
2019-03-04T03:46:22.396Z,95954.64
2019-03-04T03:51:18.265Z,95910.54
2019-03-04T03:56:14.355Z,95911.04
2019-03-04T04:01:10.164Z,95898.64
2019-03-04T04:06:05.869Z,95878.20
2019-03-04T04:11:01.640Z,95888.56
2019-03-04T04:15:57.357Z,95876.09
2019-03-04T04:20:53.111Z,95845.19
2019-03-04T04:25:48.970Z,95851.66
2019-03-04T04:30:47.095Z,95840.77
2019-03-04T04:35:42.815Z,95827.70
2019-03-04T04:40:38.549Z,95806.33
2019-03-04T04:45:34.270Z,95795.70
2019-03-04T04:50:30.273Z,95788.34
2019-03-04T04:55:26.088Z,95784.14
2019-03-04T05:00:22.179Z,95776.43
2019-03-04T05:05:17.997Z,95764.05
2019-03-04T05:10:17.162Z,95751.38
2019-03-04T05:15:13.882Z,95749.78
2019-03-04T05:20:19.486Z,95721.86
2019-03-04T05:25:15.336Z,95710.33
2019-03-04T05:30:15.579Z,95695.68
2019-03-04T05:35:11.439Z,95680.43
2019-03-04T05:40:09.936Z,95665.44
2019-03-04T05:45:06.339Z,95645.26
2019-03-04T05:50:02.128Z,95637.77
2019-03-04T05:54:57.945Z,95634.19
2019-03-04T05:59:53.727Z,95637.31
2019-03-04T06:04:49.458Z,95650.44
2019-03-04T06:09:45.302Z,95632.03
2019-03-04T06:14:41.204Z,95617.87
2019-03-04T06:19:46.239Z,95603.63
2019-03-04T06:24:54.522Z,95629.47
2019-03-04T06:29:56.848Z,95614.36
2019-03-04T06:34:51.493Z,95603.29
2019-03-04T06:40:24.698Z,95609.92
2019-03-04T06:45:21.014Z,95625.97
2019-03-04T06:51:26.574Z,95610.39
2019-03-04T06:56:44.808Z,95603.77
2019-03-04T07:01:50.718Z,95598.68
2019-03-04T07:06:47.548Z,95573.19
2019-03-04T07:11:48.132Z,95564.06
2019-03-04T07:16:44.137Z,95553.97
2019-03-04T07:21:39.960Z,95568.48
2019-03-04T07:26:35.785Z,95613.58
2019-03-04T07:31:31.563Z,95663.30
2019-03-04T07:36:27.464Z,95688.17
2019-03-04T07:41:23.453Z,95707.77
2019-03-04T07:46:19.464Z,95692.02
2019-03-04T07:51:17.278Z,95696.30
2019-03-04T07:56:14.347Z,95703.70
2019-03-04T08:01:12.287Z,95720.45
2019-03-04T08:06:08.088Z,95730.64
2019-03-04T08:30:50.337Z,95717.41
2019-03-04T08:36:24.856Z,95730.15
2019-03-04T08:41:21.728Z,95713.75
2019-03-04T08:46:52.123Z,95740.28
2019-03-04T08:52:05.621Z,95734.80
2019-03-04T08:57:04.153Z,95747.41
2019-03-04T09:02:32.990Z,95760.97
2019-03-04T09:07:28.039Z,95768.06
2019-03-04T09:12:28.904Z,95759.70
2019-03-04T09:17:40.178Z,95776.57
2019-03-04T09:22:41.545Z,95798.98
2019-03-04T09:27:49.641Z,95837.35
2019-03-04T09:33:01.032Z,95839.91
2019-03-04T09:38:19.421Z,95868.58
2019-03-04T09:49:29.440Z,95897.03
2019-03-04T10:01:32.678Z,95936.23
2019-03-04T10:08:07.578Z,95994.26
2019-03-04T10:21:50.020Z,96002.64
2019-03-04T10:27:16.433Z,96053.52
2019-03-04T10:32:52.504Z,96080.67
2019-03-04T10:39:01.317Z,96078.76
2019-03-04T10:45:10.663Z,96089.23
2019-03-04T10:50:18.411Z,96110.02
2019-03-04T10:55:19.096Z,96112.73
2019-03-04T11:00:22.310Z,96062.67
2019-03-04T11:05:18.223Z,96071.23
2019-03-04T11:10:20.599Z,96080.63
2019-03-04T11:15:35.969Z,96077.75
2019-03-04T11:20:35.023Z,96053.59
2019-03-04T11:25:32.076Z,96049.42
2019-03-04T11:30:35.107Z,96040.42
2019-03-04T11:35:30.968Z,96041.97
2019-03-04T11:40:38.857Z,96045.38
2019-03-04T11:45:35.074Z,96014.22
2019-03-04T11:50:34.952Z,95992.19
2019-03-04T11:55:35.993Z,95986.84
2019-03-04T12:01:12.491Z,96003.66
2019-03-04T12:06:16.100Z,95986.49
2019-03-04T12:11:12.239Z,96010.91
2019-03-04T12:16:09.291Z,96029.64
2019-03-04T12:21:09.658Z,96007.70
2019-03-04T12:26:07.738Z,96001.06
2019-03-04T12:31:03.817Z,96004.15
2019-03-04T12:36:01.910Z,95986.45
2019-03-04T12:40:57.764Z,95984.91
2019-03-04T12:46:04.538Z,95980.16
2019-03-04T12:51:06.305Z,95987.61
2019-03-04T12:56:02.151Z,95990.80
2019-03-04T13:01:00.266Z,95992.48
2019-03-04T13:05:56.193Z,95996.75
2019-03-04T13:10:52.118Z,95968.37
2019-03-04T13:15:56.962Z,95959.09
2019-03-04T13:20:57.997Z,95968.11
2019-03-04T13:25:56.455Z,95976.91
2019-03-04T13:31:06.560Z,95962.91
2019-03-04T13:36:38.519Z,95956.69
2019-03-04T13:41:57.881Z,95959.91
2019-03-04T13:47:06.225Z,95964.66
2019-03-04T13:52:41.151Z,95964.02
2019-03-04T13:57:43.009Z,95957.45
2019-03-04T14:02:39.344Z,95947.83
2019-03-04T14:07:41.928Z,95946.72
2019-03-04T14:12:38.233Z,95957.41
2019-03-04T14:17:34.165Z,95945.76
2019-03-04T14:22:39.830Z,95927.94
2019-03-04T14:27:27.540Z,95905.91
2019-03-04T14:32:23.541Z,95904.75
2019-03-04T14:37:19.440Z,95899.47
2019-03-04T14:42:35.948Z,95894.74
2019-03-04T14:47:31.897Z,95906.29
2019-03-04T14:52:30.550Z,95901.47
2019-03-04T14:57:31.776Z,95914.39
2019-03-04T15:02:31.200Z,95908.98
2019-03-04T15:07:32.798Z,95911.66
2019-03-04T15:12:29.274Z,95925.40
2019-03-04T15:17:32.868Z,95945.27
2019-03-04T15:22:34.834Z,95933.28
2019-03-04T15:32:29.923Z,95922.19
2019-03-04T15:37:26.047Z,95909.41
2019-03-04T15:42:21.978Z,95884.47
2019-03-04T15:47:17.928Z,95877.91
2019-03-04T15:52:13.892Z,95884.99
2019-03-04T15:57:11.399Z,95868.75
2019-03-04T16:02:39.037Z,95868.08
2019-03-04T16:07:35.080Z,95887.30
2019-03-04T16:12:35.823Z,95898.35
2019-03-04T16:17:34.082Z,95923.64
2019-03-04T16:22:29.865Z,95923.64
2019-03-04T16:27:25.849Z,95920.77
2019-03-04T16:32:21.691Z,95935.48
2019-03-04T16:37:17.517Z,95925.03
2019-03-04T16:42:13.345Z,95929.36
2019-03-04T16:47:09.310Z,95935.48
2019-03-04T16:52:08.363Z,95970.36
2019-03-04T16:57:11.993Z,95946.78
2019-03-04T17:02:07.976Z,95964.86
2019-03-04T17:07:03.807Z,95955.63
2019-03-04T17:11:59.864Z,95984.11
2019-03-04T17:16:55.801Z,96027.70
2019-03-04T17:21:51.659Z,96024.48
2019-03-04T17:26:47.473Z,96056.02
2019-03-04T17:31:44.596Z,96068.72
2019-03-04T17:36:40.443Z,96080.34
2019-03-04T17:41:36.405Z,96097.20
2019-03-04T17:46:32.611Z,96105.05
2019-03-04T17:51:28.545Z,96112.86
2019-03-04T17:56:24.656Z,96130.17
2019-03-04T18:01:20.727Z,96139.54
2019-03-04T18:06:16.639Z,96155.92
2019-03-04T18:11:14.960Z,96169.45
2019-03-04T18:16:10.821Z,96186.86
2019-03-04T18:21:06.971Z,96200.73
2019-03-04T18:26:17.240Z,96215.55
2019-03-04T18:31:44.645Z,96226.11
2019-03-04T18:37:39.427Z,96247.99
2019-03-04T18:43:53.600Z,96261.39
2019-03-04T18:49:02.207Z,96298.56
2019-03-04T18:54:04.515Z,96282.75
2019-03-04T18:59:00.475Z,96256.16
2019-03-04T19:03:56.338Z,96250.59
2019-03-04T19:08:52.285Z,96257.10
2019-03-04T19:13:48.352Z,96274.77
2019-03-04T19:18:44.446Z,96270.54
2019-03-04T19:23:42.932Z,96266.34
2019-03-04T19:28:38.787Z,96261.13
2019-03-04T19:33:34.758Z,96269.89
2019-03-04T19:38:30.652Z,96273.53
2019-03-04T19:43:32.981Z,96276.38
2019-03-04T19:48:28.242Z,96271.12
2019-03-04T19:53:24.818Z,96277.32
2019-03-04T19:58:21.531Z,96270.22
2019-03-04T20:04:12.277Z,96272.31
2019-03-04T20:09:10.759Z,96279.69
2019-03-04T20:14:07.551Z,96293.36
2019-03-04T20:20:12.159Z,96303.26
2019-03-04T20:25:12.407Z,96295.51
2019-03-04T20:30:25.770Z,96297.37
2019-03-04T20:35:31.317Z,96314.55
2019-03-04T20:40:31.581Z,96315.25
2019-03-04T20:45:41.683Z,96324.41
2019-03-04T20:50:39.728Z,96349.44
2019-03-04T20:55:44.555Z,96345.59
2019-03-04T21:01:07.626Z,96372.48
2019-03-04T21:06:23.331Z,96390.83
2019-03-04T21:11:27.158Z,96476.92
2019-03-04T21:16:25.840Z,96557.03
2019-03-04T21:21:24.245Z,96566.51
2019-03-04T21:26:47.657Z,96548.95
2019-03-04T21:32:13.131Z,96554.88
2019-03-04T21:37:25.141Z,96564.88
2019-03-04T21:42:41.280Z,96530.27
2019-03-04T21:47:44.361Z,96535.94
2019-03-04T21:53:11.956Z,96527.17
2019-03-04T21:58:14.725Z,96530.91
2019-03-04T22:03:35.704Z,96525.75
2019-03-04T22:08:31.568Z,96537.12
2019-03-04T22:13:29.863Z,96539.00
2019-03-04T22:18:40.555Z,96537.53
2019-03-04T22:23:27.303Z,96551.45
2019-03-04T22:28:44.654Z,96556.84
2019-03-04T22:33:42.070Z,96564.57
2019-03-04T22:38:38.186Z,96593.05
2019-03-04T22:43:35.261Z,96575.13
2019-03-04T22:48:33.547Z,96576.53
2019-03-04T22:53:29.555Z,96567.58
2019-03-04T22:58:28.915Z,96580.91
2019-03-04T23:03:24.632Z,96573.84
2019-03-04T23:08:32.403Z,96570.94
2019-03-04T23:13:55.446Z,96568.53
2019-03-04T23:18:51.528Z,96579.44
2019-03-04T23:23:49.445Z,96586.53
2019-03-04T23:28:46.962Z,96588.33
2019-03-04T23:33:43.054Z,96578.67
2019-03-04T23:38:39.095Z,96564.77
2019-03-04T23:43:35.063Z,96555.88
2019-03-04T23:48:30.898Z,96556.98
2019-03-04T23:53:26.867Z,96553.64
2019-03-04T23:58:22.723Z,96551.81
